Time;durP1;ratioP1;P1;durP2;ratioP2;P2;SDS_P1;SDS_P2;PMS_P1;PMS_P2;Temp;Humidity;BMP_temperature;BMP_pressure;BME280_temperature;BME280_humidity;BME280_pressure;Samples;Min_cycle;Max_cycle;Signal;HPM_P1;HPM_P2
2022/05/16 00:02:21;;;;;;;4.28;2.72;;;18.10;87.40;;;;;;4993904;28;20033;-45
2022/05/16 00:04:49;;;;;;;8.15;2.90;;;18.10;87.50;;;;;;4994315;28;20018;-46
2022/05/16 00:07:16;;;;;;;7.70;3.10;;;18.00;87.50;;;;;;4993911;28;20073;-44
2022/05/16 00:09:41;;;;;;;6.22;2.92;;;18.00;87.80;;;;;;4994102;28;20026;-46
2022/05/16 00:12:08;;;;;;;6.32;3.40;;;18.00;87.90;;;;;;4993585;28;20510;-48
2022/05/16 00:14:35;;;;;;;5.95;2.72;;;17.90;88.00;;;;;;4992827;28;20081;-48
2022/05/16 00:17:00;;;;;;;5.15;3.22;;;17.90;88.20;;;;;;4993539;28;20031;-46
2022/05/16 00:19:26;;;;;;;6.47;3.25;;;17.90;88.50;;;;;;4993940;28;20034;-49
2022/05/16 00:21:51;;;;;;;8.80;3.67;;;17.90;88.50;;;;;;4993856;28;20475;-47
2022/05/16 00:24:18;;;;;;;6.10;3.20;;;17.80;88.80;;;;;;4993692;28;20018;-47
2022/05/16 00:26:44;;;;;;;9.05;3.30;;;17.80;89.00;;;;;;4993581;28;20018;-48
2022/05/16 00:29:10;;;;;;;10.25;3.45;;;17.80;89.20;;;;;;4993720;28;20442;-45
2022/05/16 00:31:35;;;;;;;8.48;2.95;;;17.70;89.40;;;;;;4992696;28;20026;-47
2022/05/16 00:34:01;;;;;;;11.43;2.95;;;17.70;89.50;;;;;;4993612;28;20058;-48
2022/05/16 00:36:27;;;;;;;9.85;3.53;;;17.70;89.80;;;;;;4993723;28;20416;-48
2022/05/16 00:38:54;;;;;;;5.18;2.83;;;17.60;90.00;;;;;;4993129;28;20085;-48
2022/05/16 00:41:20;;;;;;;7.97;3.45;;;17.50;90.20;;;;;;4993380;28;20026;-46
2022/05/16 00:43:47;;;;;;;4.63;3.13;;;17.50;90.30;;;;;;4993452;28;20034;-47
2022/05/16 00:46:15;;;;;;;5.50;2.92;;;17.50;90.50;;;;;;4993294;28;20037;-45
2022/05/16 00:48:41;;;;;;;7.50;3.38;;;17.40;90.60;;;;;;4992708;28;20085;-45
2022/05/16 00:51:11;;;;;;;3.50;2.72;;;17.40;90.70;;;;;;4993201;28;20430;-45
2022/05/16 00:53:38;;;;;;;3.40;2.97;;;17.40;90.80;;;;;;4993398;28;20482;-46
2022/05/16 00:56:05;;;;;;;7.82;3.22;;;17.30;90.80;;;;;;4993278;28;20032;-45
2022/05/16 00:58:30;;;;;;;4.95;3.28;;;17.30;91.00;;;;;;4992807;28;20027;-47
2022/05/16 01:00:56;;;;;;;10.30;3.63;;;17.30;91.10;;;;;;4992960;28;20034;-45
2022/05/16 01:06:08;;;;;;;6.63;2.60;;;17.20;91.20;;;;;;4992973;28;20052;-45
2022/05/16 01:08:38;;;;;;;5.35;3.28;;;17.20;91.30;;;;;;4992739;28;20034;-46
2022/05/16 01:11:10;;;;;;;8.48;3.42;;;17.20;91.30;;;;;;4994318;28;20034;-45
2022/05/16 01:13:35;;;;;;;7.78;2.95;;;17.20;91.40;;;;;;4993603;28;20389;-44
2022/05/16 01:16:02;;;;;;;8.93;3.78;;;17.10;91.60;;;;;;4993602;28;20041;-48
2022/05/16 01:18:28;;;;;;;6.20;3.03;;;17.10;91.70;;;;;;4993059;28;20477;-46
2022/05/16 01:21:12;;;;;;;6.65;3.10;;;17.10;91.70;;;;;;4992622;28;20034;-46
2022/05/16 01:23:58;;;;;;;9.90;4.60;;;17.00;91.80;;;;;;4992991;28;20026;-48
2022/05/16 01:26:25;;;;;;;9.10;3.60;;;17.00;92.00;;;;;;4993046;28;20026;-46
2022/05/16 01:28:52;;;;;;;7.65;3.92;;;16.90;92.10;;;;;;4992294;28;20041;-45
2022/05/16 01:31:17;;;;;;;5.03;3.30;;;16.90;92.20;;;;;;4992747;28;20053;-45
2022/05/16 01:33:43;;;;;;;9.40;2.90;;;16.90;92.30;;;;;;4992947;28;20022;-46
2022/05/16 01:36:09;;;;;;;10.82;3.05;;;16.90;92.30;;;;;;4992499;28;20045;-47
2022/05/16 01:38:35;;;;;;;7.65;3.45;;;16.90;92.40;;;;;;4992434;28;20022;-45
2022/05/16 01:41:05;;;;;;;5.68;3.28;;;16.90;92.40;;;;;;4992305;28;20054;-48
2022/05/16 01:43:35;;;;;;;5.63;3.03;;;16.90;92.50;;;;;;4992152;28;20030;-48
2022/05/16 01:46:01;;;;;;;6.25;3.30;;;16.80;92.60;;;;;;4992168;28;20026;-47
2022/05/16 01:48:30;;;;;;;12.00;4.38;;;16.90;92.60;;;;;;4991936;28;20445;-47
2022/05/16 01:50:59;;;;;;;5.93;3.00;;;16.80;92.60;;;;;;4991891;28;20045;-48
2022/05/16 01:53:25;;;;;;;8.07;3.00;;;16.80;92.70;;;;;;4992154;28;20154;-48
2022/05/16 01:55:51;;;;;;;7.85;3.28;;;16.80;92.80;;;;;;4992058;28;20511;-47
2022/05/16 01:58:16;;;;;;;4.72;3.15;;;16.80;92.70;;;;;;4991656;28;20554;-47
2022/05/16 02:00:42;;;;;;;7.40;3.47;;;16.90;92.70;;;;;;4991697;28;20030;-47
2022/05/16 02:03:08;;;;;;;6.20;3.22;;;16.90;92.70;;;;;;4991932;28;20022;-48
2022/05/16 02:05:34;;;;;;;6.85;3.80;;;16.90;92.60;;;;;;4991659;28;20110;-50
2022/05/16 02:08:00;;;;;;;6.95;3.33;;;16.90;92.60;;;;;;4991504;28;20034;-49
2022/05/16 02:10:26;;;;;;;6.10;2.92;;;17.00;92.50;;;;;;4990840;28;20103;-45
2022/05/16 02:12:53;;;;;;;5.70;3.25;;;17.00;92.50;;;;;;4991727;28;20449;-50
2022/05/16 02:15:22;;;;;;;6.47;3.33;;;17.00;92.60;;;;;;4974241;28;20120;-50
2022/05/16 02:17:47;;;;;;;5.22;2.80;;;17.00;92.70;;;;;;4991487;28;20030;-51
2022/05/16 02:20:14;;;;;;;4.60;2.92;;;16.90;92.70;;;;;;4991885;28;20122;-48
2022/05/16 02:25:25;;;;;;;5.18;3.78;;;16.90;92.80;;;;;;4992107;28;20030;-47
2022/05/16 02:27:51;;;;;;;5.45;3.50;;;17.00;92.90;;;;;;5005015;23;20038;-47
2022/05/16 02:30:18;;;;;;;11.15;3.95;;;17.00;92.90;;;;;;4971964;28;20410;-48
2022/05/16 02:32:43;;;;;;;6.72;3.30;;;17.00;93.10;;;;;;4972365;28;20398;-46
2022/05/16 02:35:09;;;;;;;5.72;2.90;;;16.90;92.90;;;;;;4954923;28;20019;-46
2022/05/16 02:37:36;;;;;;;4.80;3.20;;;16.90;93.00;;;;;;4956415;28;20058;-48
2022/05/16 02:40:02;;;;;;;4.75;2.97;;;16.90;93.10;;;;;;4976007;28;20061;-49
2022/05/16 02:42:27;;;;;;;7.32;3.28;;;16.80;93.20;;;;;;4976019;28;20022;-47
2022/05/16 02:44:53;;;;;;;5.07;3.63;;;16.70;93.20;;;;;;4975967;28;20026;-48
2022/05/16 02:47:21;;;;;;;7.43;3.85;;;16.80;93.30;;;;;;4975687;28;20019;-45
2022/05/16 02:49:47;;;;;;;7.70;3.55;;;16.80;93.30;;;;;;4975702;28;20050;-45
2022/05/16 02:52:12;;;;;;;6.28;3.55;;;16.80;93.30;;;;;;4976125;28;20074;-50
2022/05/16 02:54:38;;;;;;;6.28;3.53;;;16.80;93.40;;;;;;4976048;28;20023;-48
2022/05/16 02:57:05;;;;;;;5.55;3.22;;;16.70;93.50;;;;;;4975335;28;20077;-48
2022/05/16 02:59:34;;;;;;;11.05;3.47;;;16.70;93.60;;;;;;4975623;28;20451;-46
2022/05/16 03:02:01;;;;;;;6.55;3.42;;;16.70;93.60;;;;;;4975614;28;20023;-50
2022/05/16 03:04:27;;;;;;;6.47;3.45;;;16.60;93.60;;;;;;4975625;28;20026;-52
2022/05/16 03:06:53;;;;;;;6.28;2.88;;;16.70;93.70;;;;;;4975212;28;20498;-43
2022/05/16 03:09:18;;;;;;;5.10;3.20;;;16.60;93.80;;;;;;4975489;28;20038;-46
2022/05/16 03:11:45;;;;;;;5.95;3.10;;;16.60;94.00;;;;;;4974749;28;20094;-46
2022/05/16 03:14:11;;;;;;;7.75;3.70;;;16.70;94.00;;;;;;4975589;28;20031;-46
2022/05/16 03:16:37;;;;;;;8.23;3.53;;;16.60;93.90;;;;;;4975305;28;20179;-47
2022/05/16 03:19:03;;;;;;;6.68;3.25;;;16.60;94.10;;;;;;4974960;28;20038;-49
2022/05/16 03:21:29;;;;;;;5.80;3.00;;;16.60;94.10;;;;;;4975276;28;20336;-52
2022/05/16 03:23:56;;;;;;;6.55;3.42;;;16.60;94.10;;;;;;4975263;28;20502;-48
2022/05/16 03:26:21;;;;;;;4.00;3.38;;;16.60;94.20;;;;;;4974995;28;20031;-49
2022/05/16 03:28:47;;;;;;;5.03;3.53;;;16.60;94.30;;;;;;4974760;28;20042;-46
2022/05/16 03:31:12;;;;;;;6.68;3.55;;;16.60;94.30;;;;;;4975034;28;20034;-48
2022/05/16 03:33:38;;;;;;;6.22;3.63;;;16.50;94.30;;;;;;4974945;28;20495;-47
2022/05/16 03:36:03;;;;;;;5.18;3.45;;;16.50;94.30;;;;;;4974884;28;20031;-50
2022/05/16 03:41:13;;;;;;;8.70;3.55;;;16.40;94.60;;;;;;4974953;28;20415;-45
2022/05/16 03:43:40;;;;;;;4.97;3.88;;;16.50;94.60;;;;;;4957744;28;20019;-46
2022/05/16 03:46:07;;;;;;;6.78;3.40;;;16.50;94.40;;;;;;4974766;28;20031;-46
2022/05/16 03:48:33;;;;;;;6.50;3.60;;;16.50;94.50;;;;;;4974070;28;20544;-48
2022/05/16 03:51:00;;;;;;;5.97;3.38;;;16.50;94.40;;;;;;4974820;28;20058;-46
2022/05/16 03:53:26;;;;;;;8.05;3.67;;;16.60;94.40;;;;;;4973447;28;20401;-47
2022/05/16 03:55:51;;;;;;;6.25;3.35;;;16.70;94.10;;;;;;4974680;28;20105;-46
2022/05/16 03:58:17;;;;;;;5.80;3.92;;;16.60;94.30;;;;;;4956932;28;20436;-49
2022/05/16 04:00:43;;;;;;;8.05;4.05;;;16.60;94.30;;;;;;4974549;28;20031;-50
2022/05/16 04:03:08;;;;;;;8.55;3.85;;;16.70;94.20;;;;;;4974579;28;20058;-46
2022/05/16 04:05:34;;;;;;;8.00;4.63;;;16.80;94.20;;;;;;4974384;28;20110;-47
2022/05/16 04:08:00;;;;;;;9.02;3.85;;;16.70;94.10;;;;;;4974187;28;20027;-46
2022/05/16 04:10:25;;;;;;;7.10;3.65;;;16.70;94.30;;;;;;4974743;28;20050;-47
2022/05/16 04:12:51;;;;;;;7.15;3.75;;;16.60;94.40;;;;;;4974191;28;20102;-49
2022/05/16 04:15:17;;;;;;;5.13;3.17;;;16.50;94.80;;;;;;4974557;28;20026;-46
2022/05/16 04:17:43;;;;;;;5.82;3.60;;;16.40;94.90;;;;;;4973921;28;20030;-47
2022/05/16 04:20:10;;;;;;;9.38;3.83;;;16.50;95.10;;;;;;4974175;28;20027;-48
2022/05/16 04:22:37;;;;;;;6.40;3.63;;;16.50;95.00;;;;;;4974079;28;20023;-46
2022/05/16 04:25:03;;;;;;;7.15;3.45;;;16.50;94.90;;;;;;4973996;28;20434;-46
2022/05/16 04:27:29;;;;;;;7.03;3.42;;;16.60;94.90;;;;;;4973479;28;20038;-47
2022/05/16 04:29:54;;;;;;;10.82;5.30;;;16.50;95.00;;;;;;4973656;28;20410;-45
2022/05/16 04:32:20;;;;;;;8.27;3.75;;;16.60;95.20;;;;;;4973884;28;20062;-47
2022/05/16 04:34:45;;;;;;;3.97;3.40;;;16.60;95.00;;;;;;4973842;28;20514;-48
2022/05/16 04:37:11;;;;;;;5.45;3.67;;;16.60;95.00;;;;;;4973343;28;20035;-48
2022/05/16 04:39:36;;;;;;;6.95;4.63;;;16.50;95.00;;;;;;4973895;28;20030;-51
2022/05/16 04:44:46;;;;;;;5.07;3.00;;;16.60;95.10;;;;;;4973796;28;20034;-49
2022/05/16 04:47:12;;;;;;;9.70;4.53;;;16.50;95.30;;;;;;4973482;28;20026;-47
2022/05/16 04:49:38;;;;;;;5.65;3.53;;;16.50;95.30;;;;;;4973851;28;20426;-50
2022/05/16 04:52:04;;;;;;;10.95;4.68;;;16.40;95.60;;;;;;4974209;28;20058;-49
2022/05/16 04:54:29;;;;;;;8.30;4.72;;;16.50;95.80;;;;;;4974369;28;20031;-48
2022/05/16 04:56:55;;;;;;;6.13;4.18;;;16.60;95.70;;;;;;4956395;28;20030;-50
2022/05/16 04:59:21;;;;;;;8.13;4.38;;;16.60;95.50;;;;;;4974033;28;20490;-48
2022/05/16 05:01:48;;;;;;;8.52;4.90;;;16.70;95.50;;;;;;4973541;28;20118;-48
2022/05/16 05:04:13;;;;;;;8.18;4.70;;;16.70;95.60;;;;;;4973502;28;20074;-48
2022/05/16 05:06:40;;;;;;;6.47;4.05;;;16.60;96.00;;;;;;4973184;28;20430;-47
2022/05/16 05:09:06;;;;;;;4.72;4.20;;;16.60;95.70;;;;;;4973052;28;20077;-51
2022/05/16 05:14:34;;;;;;;5.82;4.40;;;16.70;95.80;;;;;;4973611;28;20074;-51
2022/05/16 05:17:10;;;;;;;7.18;4.50;;;16.70;95.80;;;;;;4972879;28;20431;-45
2022/05/16 05:19:40;;;;;;;8.02;4.07;;;16.80;95.70;;;;;;4972970;28;20038;-46
2022/05/16 05:22:06;;;;;;;8.95;4.70;;;16.90;95.70;;;;;;4973143;28;20501;-46
2022/05/16 05:24:31;;;;;;;11.48;4.80;;;16.80;95.80;;;;;;4973085;28;20023;-48
2022/05/16 05:26:57;;;;;;;8.30;4.93;;;16.90;96.20;;;;;;4972813;28;20566;-47
2022/05/16 05:29:24;;;;;;;8.45;4.03;;;17.00;96.00;;;;;;4972907;28;20066;-49
2022/05/16 05:31:50;;;;;;;9.02;4.32;;;17.10;95.60;;;;;;4972940;28;20034;-45
2022/05/16 05:34:16;;;;;;;7.57;4.65;;;17.10;95.90;;;;;;4972868;28;20414;-46
2022/05/16 05:36:43;;;;;;;7.88;4.43;;;17.00;96.00;;;;;;4973033;28;20031;-46
2022/05/16 05:39:13;;;;;;;4.15;3.53;;;17.00;96.20;;;;;;4972496;28;20085;-47
2022/05/16 05:41:39;;;;;;;14.73;4.28;;;17.00;96.80;;;;;;4973010;28;20177;-46
2022/05/16 05:44:05;;;;;;;8.70;3.70;;;17.10;96.80;;;;;;4972822;28;20094;-43
2022/05/16 05:46:35;;;;;;;7.00;4.40;;;17.20;96.70;;;;;;4972706;28;20074;-48
2022/05/16 05:49:02;;;;;;;5.30;3.55;;;17.30;96.50;;;;;;4972316;28;20364;-46
2022/05/16 05:51:27;;;;;;;15.43;5.25;;;17.40;96.40;;;;;;4972693;28;20027;-44
2022/05/16 05:53:53;;;;;;;9.43;4.30;;;17.50;95.70;;;;;;4972494;28;20025;-46
2022/05/16 05:56:18;;;;;;;6.45;3.60;;;17.50;95.50;;;;;;4972514;28;20027;-47
2022/05/16 05:58:46;;;;;;;6.38;4.07;;;17.50;95.70;;;;;;4972157;28;20086;-51
2022/05/16 06:01:11;;;;;;;6.47;3.85;;;17.50;96.00;;;;;;4972559;28;20049;-46
2022/05/16 06:03:37;;;;;;;5.43;3.95;;;17.70;96.10;;;;;;4971235;28;20491;-47
2022/05/16 06:06:03;;;;;;;10.00;4.60;;;17.90;95.50;;;;;;4972404;28;20110;-48
2022/05/16 06:08:29;;;;;;;8.75;4.30;;;18.00;95.00;;;;;;4972328;28;20046;-49
2022/05/16 06:10:55;;;;;;;11.75;3.78;;;18.10;94.80;;;;;;4973568;28;20069;-47
2022/05/16 06:13:20;;;;;;;10.48;3.80;;;18.20;94.80;;;;;;4976053;28;20391;-50
2022/05/16 06:15:46;;;;;;;5.97;3.40;;;18.30;94.30;;;;;;4976396;28;20062;-44
2022/05/16 06:18:12;;;;;;;12.20;3.95;;;18.30;94.40;;;;;;4976069;28;20030;-50
2022/05/16 06:20:38;;;;;;;4.63;3.50;;;18.50;94.50;;;;;;4976210;28;20031;-49
2022/05/16 06:23:04;;;;;;;6.93;4.05;;;18.50;94.10;;;;;;4976271;28;20509;-47
2022/05/16 06:25:33;;;;;;;12.73;3.78;;;18.50;94.20;;;;;;4976327;28;20022;-46
2022/05/16 06:28:04;;;;;;;9.65;3.63;;;18.50;94.30;;;;;;4975625;28;20018;-42
2022/05/16 06:30:31;;;;;;;11.18;3.53;;;18.50;94.40;;;;;;4958921;28;20033;-49
2022/05/16 06:32:57;;;;;;;10.25;4.03;;;18.40;94.50;;;;;;4958678;28;20082;-47
2022/05/16 06:35:23;;;;;;;7.10;4.15;;;18.40;94.50;;;;;;4976162;28;20030;-48
2022/05/16 06:37:49;;;;;;;6.28;3.60;;;18.30;95.00;;;;;;4975638;28;20027;-42
2022/05/16 06:40:15;;;;;;;5.78;3.55;;;18.20;95.60;;;;;;4976046;28;20031;-47
2022/05/16 06:42:41;;;;;;;7.75;4.07;;;18.20;95.80;;;;;;4958820;28;20030;-48
2022/05/16 06:45:08;;;;;;;7.50;4.18;;;18.10;95.80;;;;;;4976153;28;20033;-50
2022/05/16 06:47:33;;;;;;;12.75;4.45;;;18.00;96.20;;;;;;4975630;28;20023;-48
2022/05/16 06:49:59;;;;;;;16.80;4.38;;;17.80;96.10;;;;;;4975905;28;20455;-43
2022/05/16 06:52:24;;;;;;;11.95;4.07;;;17.80;96.50;;;;;;4975781;28;20039;-50
2022/05/16 06:54:51;;;;;;;8.52;4.15;;;17.70;97.00;;;;;;4975707;28;20113;-49
2022/05/16 06:57:17;;;;;;;16.40;5.00;;;17.70;97.50;;;;;;4975440;28;20541;-52
2022/05/16 06:59:42;;;;;;;11.32;4.40;;;17.70;98.00;;;;;;4974879;28;20051;-44
2022/05/16 07:02:08;;;;;;;10.80;4.72;;;17.70;98.00;;;;;;4975576;28;20395;-48
2022/05/16 07:04:36;;;;;;;11.73;4.15;;;17.70;97.80;;;;;;4958203;28;20561;-47
2022/05/16 07:07:04;;;;;;;9.63;4.60;;;17.60;98.10;;;;;;4975078;28;20046;-48
2022/05/16 07:09:30;;;;;;;7.03;4.10;;;17.60;98.20;;;;;;4975169;28;20035;-48
2022/05/16 07:11:56;;;;;;;5.18;3.90;;;17.60;98.30;;;;;;4984423;28;20387;-44
2022/05/16 07:14:21;;;;;;;6.63;4.57;;;17.70;98.30;;;;;;4974647;28;20038;-52
2022/05/16 07:16:47;;;;;;;9.88;5.60;;;17.80;98.50;;;;;;4975060;28;20038;-48
2022/05/16 07:19:12;;;;;;;9.40;4.47;;;17.90;97.80;;;;;;4974781;28;20027;-53
2022/05/16 07:21:38;;;;;;;5.63;3.80;;;18.00;97.90;;;;;;4975205;28;20049;-50
2022/05/16 07:24:04;;;;;;;5.95;3.63;;;18.10;97.60;;;;;;4974339;28;20383;-51
2022/05/16 07:29:14;;;;;;;18.02;4.57;;;18.60;97.70;;;;;;4974859;28;20046;-53
2022/05/16 07:31:39;;;;;;;11.15;4.30;;;18.80;97.20;;;;;;4975048;28;20387;-46
2022/05/16 07:34:05;;;;;;;6.80;4.10;;;19.10;96.90;;;;;;4974889;28;20135;-47
2022/05/16 07:36:30;;;;;;;9.43;4.55;;;19.40;96.40;;;;;;4975020;28;20565;-46
2022/05/16 07:38:56;;;;;;;10.02;4.53;;;19.70;95.80;;;;;;4974432;28;20573;-47
2022/05/16 07:41:22;;;;;;;9.85;4.10;;;19.90;95.70;;;;;;4975279;28;20141;-49
2022/05/16 07:43:47;;;;;;;7.32;4.05;;;19.90;95.60;;;;;;4975126;28;20084;-49
2022/05/16 07:46:13;;;;;;;8.18;4.32;;;19.90;95.60;;;;;;4975045;28;20109;-45
2022/05/16 07:48:38;;;;;;;7.93;3.90;;;19.80;96.00;;;;;;4974653;28;20031;-47
2022/05/16 07:51:04;;;;;;;7.93;4.03;;;19.90;96.20;;;;;;4975656;28;20054;-48
2022/05/16 07:53:29;;;;;;;7.03;3.88;;;19.90;96.30;;;;;;4975125;28;20558;-49
2022/05/16 07:55:57;;;;;;;9.43;4.18;;;20.10;96.20;;;;;;4974734;28;20023;-43
2022/05/16 07:58:25;;;;;;;9.13;4.63;;;20.20;96.20;;;;;;4974506;28;20030;-49
2022/05/16 08:00:52;;;;;;;14.90;4.03;;;20.40;96.10;;;;;;4974487;28;20027;-47
2022/05/16 08:03:20;;;;;;;8.90;4.18;;;20.60;95.80;;;;;;4974554;28;20376;-51
2022/05/16 08:05:46;;;;;;;8.93;4.05;;;20.80;95.30;;;;;;4974300;28;20105;-50
2022/05/16 08:11:01;;;;;;;15.57;3.88;;;22.40;94.00;;;;;;4974540;28;20049;-43
2022/05/16 08:13:28;;;;;;;6.88;4.03;;;23.60;91.40;;;;;;4974374;28;20110;-49
2022/05/16 08:15:54;;;;;;;13.32;3.20;;;24.60;88.80;;;;;;4974061;28;20043;-48
2022/05/16 08:18:20;;;;;;;9.65;3.40;;;24.80;87.70;;;;;;4973938;28;20022;-48
2022/05/16 08:20:47;;;;;;;10.70;3.47;;;25.10;86.50;;;;;;4973746;28;20483;-44
2022/05/16 08:23:15;;;;;;;6.57;2.95;;;25.70;86.50;;;;;;4973349;28;20035;-50
2022/05/16 08:25:44;;;;;;;11.60;3.50;;;25.70;84.60;;;;;;4973927;28;20034;-46
2022/05/16 08:30:37;;;;;;;9.02;3.20;;;25.90;85.40;;;;;;4989193;28;20046;-47
2022/05/16 08:33:04;;;;;;;6.82;2.83;;;25.90;83.30;;;;;;4993867;28;20038;-50
2022/05/16 08:35:30;;;;;;;8.60;3.58;;;26.20;83.20;;;;;;4992941;28;20022;-44
2022/05/16 08:40:59;;;;;;;7.80;2.95;;;25.30;84.00;;;;;;4973832;28;20101;-46
2022/05/16 08:43:43;;;;;;;4.88;3.03;;;25.30;85.40;;;;;;4953687;29;20483;-49
2022/05/16 08:46:28;;;;;;;8.20;3.05;;;25.60;84.90;;;;;;4974672;28;20105;-44
2022/05/16 08:49:01;;;;;;;10.88;3.25;;;26.10;83.70;;;;;;4990025;28;20501;-46
2022/05/16 08:51:30;;;;;;;6.75;3.28;;;26.40;82.10;;;;;;4973741;28;20023;-46
2022/05/16 08:53:58;;;;;;;13.23;3.95;;;26.60;82.00;;;;;;4988206;28;20022;-44
2022/05/16 08:56:37;;;;;;;11.88;4.05;;;26.60;81.80;;;;;;5150919;27;20307;-45
2022/05/16 08:59:11;;;;;;;10.00;3.60;;;26.50;81.40;;;;;;5143039;27;20023;-46
2022/05/16 09:01:51;;;;;;;6.10;2.65;;;26.50;81.50;;;;;;5130420;28;20019;-44
2022/05/16 09:04:30;;;;;;;7.43;3.92;;;26.80;81.80;;;;;;5128919;28;20486;-44
2022/05/16 09:07:05;;;;;;;8.32;3.72;;;27.00;81.80;;;;;;5129960;28;20043;-47
2022/05/16 09:09:45;;;;;;;;;;;27.10;81.00;;;;;;5130733;27;20044;-45
2022/05/16 09:12:18;;;;;;;9.10;3.22;;;27.30;80.20;;;;;;5129577;27;19925;-47
2022/05/16 09:14:52;;;;;;;7.63;2.92;;;27.30;80.60;;;;;;5129615;27;20051;-43
2022/05/16 09:17:51;;;;;;;10.57;3.38;;;27.40;80.30;;;;;;5129103;28;20110;-43
2022/05/16 09:20:49;;;;;;;8.48;3.75;;;27.30;80.40;;;;;;5129548;27;20030;-45
2022/05/16 09:23:32;;;;;;;14.13;3.80;;;27.30;80.50;;;;;;5119255;27;20110;-42
2022/05/16 09:26:16;;;;;;;8.90;4.82;;;27.40;80.10;;;;;;5128977;28;20020;-42
2022/05/16 09:28:57;;;;;;;7.45;3.20;;;27.30;80.60;;;;;;5128800;28;20027;-45
2022/05/16 09:31:27;;;;;;;13.88;3.80;;;27.10;80.70;;;;;;5127056;27;20049;-46
2022/05/16 09:33:55;;;;;;;15.55;3.75;;;27.20;82.00;;;;;;5129248;28;20103;-46
2022/05/16 09:36:31;;;;;;;18.65;3.88;;;27.20;81.80;;;;;;5116664;28;20031;-41
2022/05/16 09:38:56;;;;;;;5.28;3.33;;;27.40;82.10;;;;;;5128985;28;20023;-44
2022/05/16 09:41:45;;;;;;;10.48;3.75;;;27.70;81.30;;;;;;5129061;28;20023;-45
2022/05/16 09:44:19;;;;;;;10.43;3.38;;;27.80;80.70;;;;;;5128592;27;20070;-43
2022/05/16 09:46:45;;;;;;;5.25;2.65;;;27.40;80.00;;;;;;5128876;27;20024;-41
2022/05/16 09:49:29;;;;;;;9.65;3.47;;;27.20;81.20;;;;;;5089929;28;20031;-44
2022/05/16 09:51:57;;;;;;;11.93;3.15;;;27.20;81.50;;;;;;5108431;28;20395;-48
2022/05/16 09:54:35;;;;;;;8.13;4.45;;;27.10;81.70;;;;;;5108302;28;20031;-43
2022/05/16 09:57:12;;;;;;;10.75;3.08;;;27.00;81.60;;;;;;5108140;28;20020;-46
2022/05/16 09:59:58;;;;;;;6.82;3.13;;;27.10;82.90;;;;;;5126783;27;20099;-44
2022/05/16 10:02:34;;;;;;;12.93;3.42;;;27.10;81.70;;;;;;5128457;27;20027;-45
2022/05/16 10:05:21;;;;;;;8.43;3.30;;;27.10;82.10;;;;;;5129143;27;20034;-48
2022/05/16 10:07:50;;;;;;;5.45;2.88;;;27.00;82.00;;;;;;5094902;28;20050;-46
2022/05/16 10:10:22;;;;;;;5.68;3.28;;;27.00;82.40;;;;;;5094454;28;20547;-44
2022/05/16 10:12:49;;;;;;;10.95;3.60;;;27.10;82.70;;;;;;5094875;28;20020;-42
2022/05/16 10:15:17;;;;;;;12.15;3.70;;;27.20;82.20;;;;;;5094424;28;20077;-43
2022/05/16 10:17:44;;;;;;;7.80;3.30;;;27.30;83.20;;;;;;5076161;28;20557;-49
2022/05/16 10:20:15;;;;;;;8.70;3.78;;;27.30;82.10;;;;;;5094073;28;20036;-44
2022/05/16 10:22:42;;;;;;;6.90;3.05;;;27.40;82.50;;;;;;5094109;28;20019;-45
2022/05/16 10:25:13;;;;;;;10.93;3.85;;;27.40;82.80;;;;;;5093849;28;20032;-43
2022/05/16 10:27:39;;;;;;;6.60;2.95;;;27.50;82.60;;;;;;5093803;28;20135;-43
2022/05/16 10:30:09;;;;;;;11.77;3.50;;;27.50;82.20;;;;;;5108662;27;20102;-44
2022/05/16 10:35:31;;;;;;;10.02;3.65;;;27.30;82.70;;;;;;5134983;27;20027;-46
2022/05/16 10:38:00;;;;;;;6.38;3.72;;;27.10;83.20;;;;;;5134742;27;20026;-48
2022/05/16 10:40:36;;;;;;;10.65;3.67;;;27.10;82.60;;;;;;5134757;27;20015;-45
2022/05/16 10:43:21;;;;;;;9.27;3.30;;;27.00;83.40;;;;;;5135251;27;20023;-44
2022/05/16 10:45:53;;;;;;;11.88;4.10;;;27.00;83.40;;;;;;5134661;27;20030;-43
2022/05/16 10:48:18;;;;;;;14.35;3.78;;;27.00;83.40;;;;;;5134300;27;20494;-43
2022/05/16 10:50:52;;;;;;;6.55;3.30;;;26.90;83.70;;;;;;5134814;27;20055;-50
2022/05/16 10:53:23;;;;;;;8.13;4.75;;;27.00;83.90;;;;;;5127306;27;20023;-44
2022/05/16 10:56:25;;;;;;;10.40;3.58;;;26.90;82.80;;;;;;5113740;28;20169;-46
2022/05/16 10:59:10;;;;;;;4.18;3.22;;;26.80;83.90;;;;;;5114042;28;20047;-50
2022/05/16 11:01:36;;;;;;;7.03;2.83;;;26.50;84.60;;;;;;5113495;28;20474;-46
2022/05/16 11:04:29;;;;;;;8.63;3.05;;;26.40;83.80;;;;;;5112612;28;20056;-42
2022/05/16 11:07:00;;;;;;;6.00;3.22;;;26.10;84.50;;;;;;5111005;28;20019;-43
2022/05/16 11:09:31;;;;;;;11.85;3.90;;;26.00;85.80;;;;;;5111815;28;20475;-46
2022/05/16 11:12:24;;;;;;;7.95;3.42;;;26.10;85.90;;;;;;5113226;28;20030;-46
2022/05/16 11:15:10;;;;;;;4.68;3.00;;;26.20;85.90;;;;;;5113101;28;20023;-44
2022/05/16 11:18:14;;;;;;;7.45;3.20;;;26.40;86.50;;;;;;5112806;28;20016;-44
2022/05/16 11:20:48;;;;;;;6.63;3.30;;;26.70;84.70;;;;;;5113354;28;20024;-45
2022/05/16 11:23:26;;;;;;;11.02;3.25;;;26.90;85.00;;;;;;5094529;28;20019;-46
2022/05/16 11:26:02;;;;;;;8.57;3.33;;;27.10;84.40;;;;;;5113278;28;20039;-48
2022/05/16 11:32:00;;;;;;;9.35;3.40;;;27.10;84.20;;;;;;5113778;28;20108;-44
2022/05/16 11:34:53;;;;;;;16.00;5.10;;;26.90;84.00;;;;;;5112332;28;20466;-44
2022/05/16 11:37:40;;;;;;;15.73;3.83;;;26.70;85.10;;;;;;5112717;28;20081;-44
2022/05/16 11:40:28;;;;;;;35.92;25.27;;;26.60;85.50;;;;;;5113156;28;20024;-44
2022/05/16 11:43:27;;;;;;;9.80;5.70;;;26.60;86.30;;;;;;5113265;28;20027;-45
2022/05/16 11:46:21;;;;;;;9.80;2.85;;;26.40;86.50;;;;;;5112710;28;20066;-43
2022/05/16 11:49:00;;;;;;;9.57;3.40;;;26.40;86.00;;;;;;5112740;28;20107;-45
2022/05/16 11:51:45;;;;;;;13.27;3.13;;;26.20;86.50;;;;;;5113344;28;20038;-44
2022/05/16 11:54:16;;;;;;;12.15;3.10;;;26.00;86.70;;;;;;5113270;28;20027;-46
2022/05/16 12:02:48;;;;;;;;;;;25.60;87.80;;;;;;5113532;28;20035;-45
2022/05/16 12:05:22;;;;;;;13.70;2.63;;;25.50;87.80;;;;;;5112563;28;19989;-43
2022/05/16 12:07:57;;;;;;;6.03;2.13;;;25.30;88.50;;;;;;5112593;28;20035;-45
2022/05/16 12:10:28;;;;;;;;;;;25.30;86.90;;;;;;5113240;28;20513;-44
2022/05/16 12:13:28;;;;;;;5.35;2.83;;;25.20;86.30;;;;;;5112531;28;20278;-46
2022/05/16 12:16:12;;;;;;;3.80;1.88;;;25.20;85.20;;;;;;5079437;28;20518;-43
2022/05/16 12:18:39;;;;;;;8.75;2.08;;;25.10;84.60;;;;;;5112065;28;20028;-47
2022/05/16 12:21:32;;;;;;;7.88;2.38;;;25.00;85.00;;;;;;5112300;28;20114;-45
2022/05/16 12:24:01;;;;;;;12.68;2.00;;;24.80;85.50;;;;;;5104014;28;20062;-43
2022/05/16 12:26:26;;;;;;;13.60;2.17;;;24.60;86.90;;;;;;5111921;28;20054;-45
2022/05/16 12:29:08;;;;;;;6.60;1.92;;;24.40;89.50;;;;;;5111851;28;20024;-46
2022/05/16 12:31:50;;;;;;;8.15;2.28;;;24.20;90.90;;;;;;5112256;28;20058;-48
2022/05/16 12:34:42;;;;;;;4.07;2.00;;;24.00;91.60;;;;;;5112273;28;20471;-45
2022/05/16 12:37:16;;;;;;;13.02;2.65;;;23.80;92.60;;;;;;5112142;28;20132;-45
2022/05/16 12:39:55;;;;;;;5.63;2.03;;;23.60;94.00;;;;;;5112314;28;20015;-44
2022/05/16 12:42:46;;;;;;;5.85;2.70;;;23.40;94.10;;;;;;5112058;28;20031;-45
2022/05/16 12:45:28;;;;;;;11.88;2.30;;;23.30;94.30;;;;;;5111415;28;20027;-43
2022/05/16 12:48:35;;;;;;;14.50;5.28;;;23.30;94.60;;;;;;5111653;28;20080;-45
2022/05/16 12:51:21;;;;;;;5.22;2.80;;;23.30;94.90;;;;;;5111604;28;20393;-45
2022/05/16 12:54:30;;;;;;;8.73;1.98;;;23.40;94.50;;;;;;5093209;28;20050;-44
2022/05/16 12:56:58;;;;;;;8.13;2.83;;;23.40;94.00;;;;;;5096742;28;20027;-43
2022/05/16 12:59:59;;;;;;;18.08;2.22;;;23.50;94.70;;;;;;5110919;28;20447;-44
2022/05/16 13:02:33;;;;;;;6.32;1.95;;;23.50;94.40;;;;;;5109934;28;20069;-44
2022/05/16 13:05:28;;;;;;;10.18;1.92;;;23.70;94.40;;;;;;5106003;28;20379;-43
2022/05/16 13:08:20;;;;;;;12.98;3.08;;;23.90;93.70;;;;;;5109214;28;20375;-44
2022/05/16 13:11:07;;;;;;;3.65;1.95;;;24.20;93.10;;;;;;5111872;28;20024;-42
2022/05/16 13:13:58;;;;;;;6.55;1.50;;;24.40;93.10;;;;;;5111882;28;20046;-44
2022/05/16 13:16:32;;;;;;;9.70;3.30;;;24.60;92.40;;;;;;5112099;28;20347;-44
2022/05/16 13:19:07;;;;;;;11.47;2.20;;;24.70;91.90;;;;;;5113215;28;20337;-45
2022/05/16 13:21:37;;;;;;;11.85;2.30;;;24.70;91.60;;;;;;5112820;28;20023;-47
2022/05/16 13:24:07;;;;;;;7.78;1.98;;;24.80;92.10;;;;;;5111888;28;20107;-43
2022/05/16 13:29:23;;;;;;;10.52;2.58;;;24.90;91.10;;;;;;5111877;28;20105;-45
2022/05/16 13:31:52;;;;;;;7.85;2.30;;;24.90;90.90;;;;;;5111716;28;20083;-43
2022/05/16 13:34:42;;;;;;;20.75;2.10;;;24.80;90.60;;;;;;5111680;28;20036;-42
2022/05/16 13:37:09;;;;;;;11.30;1.83;;;24.80;90.90;;;;;;5111534;28;20065;-47
2022/05/16 13:39:47;;;;;;;8.95;2.20;;;24.60;90.70;;;;;;5111882;28;20467;-43
2022/05/16 13:42:13;;;;;;;6.65;2.05;;;24.60;90.80;;;;;;5114029;28;20028;-44
2022/05/16 13:44:44;;;;;;;7.25;2.10;;;24.40;90.70;;;;;;5115598;28;20133;-43